Randolph Air Force Base
KRND : now visible

Airfield :











YOU CAN JOIN US ON...

 
LOGIN :

Register | Disclaimer

   EN    FR    IT 

 









Legend :    VFR   Marginal VFR   IFR   Intensive IFR   Very Intensive IFR
Visi :
Ceiling :
>= 8 km
>= 3000ft
5 to 8 km
1000 to 3000 ft
1500m to 5 km
500 to 1000 ft
800 to 1500m
200 to 500 ft
< 800m
< 200 ft
Symbols :   Thunderstorms  Fog  Heavy snow  Heavy precipitations  Wind > 20 kt







- Airport Elevation : 761 ft


KRND - Randolph Air Force Base

CURRENT METAR :
  • 160556Z AUTO 23003KT 10SM CLR 26/21 A3004 RMK AO2 SLP163 T02610208 10333 20259 403540205 51010 $

EXPIRED METARs :
  • 160456Z AUTO 19003KT 10SM CLR 26/21 A3003 RMK AO2 SLP160 T02610206 $
  • 160356Z AUTO 18005KT 10SM CLR 27/20 A3003 RMK AO2 SLP160 T02700203 $

TAF TAF KRND
Valid from the 15 at 17:00 until the 16 at 23:00 UTC


151700Z 1517/1623 07009KT 9999 SKC QNH2996INS
BECMG 1604/1605 VRB06KT 9999 FEW050 QNH2999INS TX35/1521Z TN23/1612Z LAST NO AMDS AFT 1523 NEXT 1609
No reported NOTAMs for that airfield.



MET'MAP, your aeronautical weather chart ! - Copyright ORBIFLY December 2007 - Disclaimer

ORBIFLY MET'MAP TEAM :

Programming & Development : Alexandra Zaïnal
Concept & Development : Baudouin d'Aumeries
Co-Development & Prog : Marc-Olivier Méhu
Technical & hardware support : Manuel Goepfert

Contact : metmap@orbifly.com




SOURCES & CREDITS :

   NOAA       Earth
Advisory